createdAt,value
2023-04-18T00:00:07.740Z,102011.41
2023-04-18T00:02:39.868Z,102009.25
2023-04-18T00:05:07.797Z,102014.63
2023-04-18T00:07:35.558Z,102024.81
2023-04-18T00:10:04.130Z,102023.09
2023-04-18T00:12:32.001Z,102022.63
2023-04-18T00:14:58.859Z,102014.94
2023-04-18T00:17:28.464Z,102024.84
2023-04-18T00:19:58.331Z,102021.84
2023-04-18T00:22:25.896Z,102019.63
2023-04-18T00:24:52.887Z,102022.41
2023-04-18T00:27:20.665Z,102018.34
2023-04-18T00:29:48.028Z,102020.28
2023-04-18T00:32:16.766Z,102022.56
2023-04-18T00:34:43.587Z,102011.31
2023-04-18T00:37:13.015Z,102016.91
2023-04-18T00:39:42.132Z,102018.44
2023-04-18T00:42:09.020Z,102016.16
2023-04-18T00:44:35.890Z,102018.09
2023-04-18T00:47:02.801Z,102012.75
2023-04-18T00:49:29.807Z,102009.94
2023-04-18T00:51:57.064Z,102014.56
2023-04-18T00:54:24.654Z,102016.84
2023-04-18T00:56:54.651Z,102024.38
2023-04-18T00:59:22.413Z,102022.75
2023-04-18T01:01:49.297Z,102020.91
2023-04-18T01:04:16.784Z,102023.66
2023-04-18T01:06:45.641Z,102024.25
2023-04-18T01:09:14.083Z,102026.34
2023-04-18T01:11:40.892Z,102026.56
2023-04-18T01:14:09.247Z,102031.28
2023-04-18T01:16:37.214Z,102031.00
2023-04-18T01:19:05.860Z,102032.31
2023-04-18T01:21:37.545Z,102026.06
2023-04-18T01:24:08.372Z,102022.69
2023-04-18T01:26:35.256Z,102036.63
2023-04-18T01:29:05.187Z,102031.53
2023-04-18T01:31:39.750Z,102027.34
2023-04-18T01:34:07.707Z,102032.81
2023-04-18T01:36:36.060Z,102030.44
2023-04-18T01:39:03.073Z,102022.28
2023-04-18T01:41:32.733Z,102032.50
2023-04-18T01:44:00.342Z,102028.53
2023-04-18T01:46:27.866Z,102023.72
2023-04-18T01:48:55.288Z,102028.84
2023-04-18T01:51:22.210Z,102028.63
2023-04-18T01:53:49.362Z,102036.91
2023-04-18T01:56:16.087Z,102032.97
2023-04-18T01:58:42.961Z,102033.31
2023-04-18T02:01:09.831Z,102043.06
2023-04-18T02:03:38.807Z,102039.78
2023-04-18T02:06:06.597Z,102041.31
2023-04-18T02:08:35.947Z,102044.19
2023-04-18T02:11:05.183Z,102043.91
2023-04-18T02:13:32.173Z,102042.81
2023-04-18T02:15:59.030Z,102043.59
2023-04-18T02:18:27.212Z,102044.69
2023-04-18T02:20:54.162Z,102047.16
2023-04-18T02:23:22.430Z,102052.31
2023-04-18T02:25:49.486Z,102052.75
2023-04-18T02:28:17.682Z,102046.25
2023-04-18T02:30:44.787Z,102042.63
2023-04-18T02:33:11.902Z,102050.66
2023-04-18T02:35:39.912Z,102048.97
2023-04-18T02:38:07.134Z,102048.69
2023-04-18T02:40:33.859Z,102055.88
2023-04-18T02:43:02.146Z,102049.88
2023-04-18T02:45:29.432Z,102054.63
2023-04-18T02:47:59.147Z,102054.03
2023-04-18T02:50:27.158Z,102051.91
2023-04-18T02:52:56.134Z,102054.91
2023-04-18T02:55:28.160Z,102049.88
2023-04-18T02:57:58.597Z,102042.44
2023-04-18T03:00:43.383Z,102047.16
2023-04-18T03:03:36.650Z,102053.13
2023-04-18T03:06:23.757Z,102051.28
2023-04-18T03:08:51.854Z,102055.31
2023-04-18T03:11:18.837Z,102049.78
2023-04-18T03:13:46.094Z,102048.25
2023-04-18T03:16:14.324Z,102054.88
2023-04-18T03:18:42.335Z,102053.81
2023-04-18T03:21:09.230Z,102061.34
2023-04-18T03:23:36.795Z,102061.97
2023-04-18T03:26:07.131Z,102062.13
2023-04-18T03:28:35.931Z,102066.53
2023-04-18T03:31:03.248Z,102065.13
2023-04-18T03:33:32.612Z,102067.31
2023-04-18T03:36:07.657Z,102077.22
2023-04-18T03:38:34.781Z,102072.41
2023-04-18T03:41:02.941Z,102066.66
2023-04-18T03:43:33.686Z,102076.38
2023-04-18T03:46:00.963Z,102072.97
2023-04-18T03:48:29.126Z,102069.25
2023-04-18T03:51:00.081Z,102079.59
2023-04-18T03:53:27.003Z,102076.22
2023-04-18T03:55:56.420Z,102088.03
2023-04-18T03:58:30.365Z,102093.81
2023-04-18T04:00:57.189Z,102094.19
2023-04-18T04:03:24.018Z,102094.38
2023-04-18T04:05:51.103Z,102101.13
2023-04-18T04:08:17.962Z,102097.84
2023-04-18T04:10:45.582Z,102096.59
2023-04-18T04:13:12.533Z,102100.28
2023-04-18T04:15:41.108Z,102100.81
2023-04-18T04:18:10.260Z,102110.63
2023-04-18T04:20:40.614Z,102120.16
2023-04-18T04:23:12.749Z,102120.56
2023-04-18T04:25:40.852Z,102112.56
2023-04-18T04:28:17.530Z,102117.91
2023-04-18T04:30:53.903Z,102118.81
2023-04-18T04:33:25.132Z,102114.63
2023-04-18T04:35:55.528Z,102119.22
2023-04-18T04:38:25.593Z,102123.31
2023-04-18T04:40:54.056Z,102118.72
2023-04-18T04:43:21.704Z,102126.44
2023-04-18T04:45:49.662Z,102114.88
2023-04-18T04:48:16.859Z,102119.59
2023-04-18T04:50:52.398Z,102116.16
2023-04-18T04:53:19.555Z,102118.25
2023-04-18T04:55:46.693Z,102120.09
2023-04-18T04:58:13.809Z,102125.75
2023-04-18T05:01:03.263Z,102130.50
2023-04-18T05:03:32.069Z,102126.50
2023-04-18T05:05:59.677Z,102127.44
2023-04-18T05:08:26.864Z,102134.06
2023-04-18T05:10:53.626Z,102127.88
2023-04-18T05:13:20.557Z,102130.63
2023-04-18T05:15:47.475Z,102134.38
2023-04-18T05:18:14.456Z,102127.25
2023-04-18T05:20:41.257Z,102140.63
2023-04-18T05:23:08.076Z,102144.06
2023-04-18T05:25:34.852Z,102132.13
2023-04-18T05:28:04.514Z,102133.88
2023-04-18T05:30:31.407Z,102130.22
2023-04-18T05:32:58.316Z,102133.13
2023-04-18T05:35:25.260Z,102137.75
2023-04-18T05:37:52.167Z,102139.09
2023-04-18T05:40:18.986Z,102141.28
2023-04-18T05:42:45.768Z,102150.31
2023-04-18T05:45:12.730Z,102148.81
2023-04-18T05:47:39.480Z,102150.16
2023-04-18T05:50:07.404Z,102154.06
2023-04-18T05:52:34.394Z,102154.91
2023-04-18T05:55:01.289Z,102156.50
2023-04-18T05:57:28.078Z,102152.16
2023-04-18T05:59:54.899Z,102160.22
2023-04-18T06:02:22.316Z,102154.81
2023-04-18T06:04:50.022Z,102160.41
2023-04-18T06:07:16.905Z,102160.91
2023-04-18T06:09:43.783Z,102162.44
2023-04-18T06:12:10.862Z,102162.53
2023-04-18T06:14:37.685Z,102169.56
2023-04-18T06:17:04.542Z,102164.44
2023-04-18T06:19:31.479Z,102166.41
2023-04-18T06:21:58.291Z,102168.56
2023-04-18T06:24:25.289Z,102178.63
2023-04-18T06:26:52.281Z,102182.47
2023-04-18T06:29:19.150Z,102181.47
2023-04-18T06:31:46.788Z,102184.63
2023-04-18T06:34:14.163Z,102182.78
2023-04-18T06:36:41.109Z,102184.13
2023-04-18T06:39:08.165Z,102186.31
2023-04-18T06:41:35.063Z,102185.16
2023-04-18T06:44:03.413Z,102190.75
2023-04-18T06:46:31.696Z,102183.06
2023-04-18T06:48:58.820Z,102183.03
2023-04-18T06:51:25.618Z,102183.81
2023-04-18T06:53:55.784Z,102181.16
2023-04-18T06:56:23.024Z,102192.34
2023-04-18T06:58:50.039Z,102190.16
2023-04-18T07:01:16.945Z,102185.22
2023-04-18T07:03:43.888Z,102192.28
2023-04-18T07:06:11.108Z,102193.03
2023-04-18T07:08:38.373Z,102195.97
2023-04-18T07:11:06.745Z,102195.28
2023-04-18T07:13:33.634Z,102201.72
2023-04-18T07:16:01.685Z,102199.06
2023-04-18T07:18:37.433Z,102195.13
2023-04-18T07:21:07.871Z,102200.13
2023-04-18T07:23:35.674Z,102205.88
2023-04-18T07:26:03.256Z,102206.91
2023-04-18T07:28:31.222Z,102208.91
2023-04-18T07:30:58.395Z,102219.09
2023-04-18T07:33:25.326Z,102217.09
2023-04-18T07:35:53.215Z,102215.91
2023-04-18T07:38:20.412Z,102226.31
2023-04-18T07:40:47.218Z,102227.38
2023-04-18T07:43:13.997Z,102228.41
2023-04-18T07:45:43.384Z,102227.81
2023-04-18T07:48:11.403Z,102228.47
2023-04-18T07:50:38.355Z,102229.53
2023-04-18T07:53:05.259Z,102229.88
2023-04-18T07:55:32.038Z,102238.91
2023-04-18T07:57:58.962Z,102235.91
2023-04-18T08:00:26.384Z,102239.84
2023-04-18T08:02:53.407Z,102225.56
2023-04-18T08:05:20.547Z,102237.31
2023-04-18T08:07:47.407Z,102241.16
2023-04-18T08:10:14.158Z,102239.31
2023-04-18T08:12:41.235Z,102238.16
2023-04-18T08:15:08.802Z,102240.34
2023-04-18T08:17:36.127Z,102245.88
2023-04-18T08:20:07.328Z,102241.03
2023-04-18T08:22:34.266Z,102243.03
2023-04-18T08:25:05.451Z,102241.88
2023-04-18T08:27:32.910Z,102236.50
2023-04-18T08:30:00.789Z,102237.16
2023-04-18T08:32:27.818Z,102236.16
2023-04-18T08:34:59.114Z,102233.47
2023-04-18T08:37:27.889Z,102227.78
2023-04-18T08:39:54.735Z,102232.13
2023-04-18T08:42:23.012Z,102234.00
2023-04-18T08:44:49.944Z,102237.34
2023-04-18T08:47:16.725Z,102238.19
2023-04-18T08:49:46.835Z,102242.53
2023-04-18T08:52:14.747Z,102243.53
2023-04-18T08:54:42.883Z,102237.84
2023-04-18T08:57:16.774Z,102242.88
2023-04-18T08:59:46.337Z,102247.03
2023-04-18T09:02:16.344Z,102245.19
2023-04-18T09:04:45.432Z,102248.91
2023-04-18T09:07:15.391Z,102247.03
2023-04-18T09:09:47.850Z,102241.50
2023-04-18T09:12:22.778Z,102248.88
2023-04-18T09:14:51.862Z,102249.38
2023-04-18T09:17:36.192Z,102244.88
2023-04-18T09:20:09.442Z,102250.72
2023-04-18T09:23:03.967Z,102255.56
2023-04-18T09:25:39.830Z,102251.50
2023-04-18T09:28:30.755Z,102258.84
2023-04-18T09:31:17.848Z,102246.91
2023-04-18T09:33:56.917Z,102241.69
2023-04-18T09:36:27.950Z,102254.53
2023-04-18T09:38:56.976Z,102251.81
2023-04-18T09:41:24.401Z,102256.00
2023-04-18T09:44:09.248Z,102248.22
2023-04-18T09:46:37.166Z,102247.84
2023-04-18T09:49:04.036Z,102253.53
2023-04-18T09:51:31.919Z,102250.06
2023-04-18T09:53:58.638Z,102254.38
2023-04-18T09:56:26.442Z,102252.47
2023-04-18T09:58:59.162Z,102254.44
2023-04-18T10:01:29.563Z,102251.75
2023-04-18T10:03:57.607Z,102249.94
2023-04-18T10:06:27.433Z,102247.88
2023-04-18T10:08:55.278Z,102259.53
2023-04-18T10:11:22.183Z,102256.03
2023-04-18T10:13:49.860Z,102255.25
2023-04-18T10:16:17.166Z,102254.25
2023-04-18T10:18:44.089Z,102250.81
2023-04-18T10:21:11.465Z,102251.69
2023-04-18T10:23:39.920Z,102250.84
2023-04-18T10:26:11.086Z,102254.50
2023-04-18T10:28:57.749Z,102256.66
2023-04-18T10:31:26.518Z,102258.50
2023-04-18T10:34:06.648Z,102266.59
2023-04-18T10:36:33.669Z,102256.47
2023-04-18T10:39:03.282Z,102258.50
2023-04-18T10:41:32.101Z,102248.19
2023-04-18T10:44:08.766Z,102251.47
2023-04-18T10:46:43.108Z,102263.31
2023-04-18T10:49:16.274Z,102256.94
2023-04-18T10:51:46.814Z,102255.19
2023-04-18T10:54:24.761Z,102260.78
2023-04-18T10:56:55.971Z,102265.59
2023-04-18T10:59:24.307Z,102269.03
2023-04-18T11:02:00.317Z,102259.44
2023-04-18T11:04:27.291Z,102265.66
2023-04-18T11:07:00.440Z,102264.44
2023-04-18T11:09:27.302Z,102260.78
2023-04-18T11:12:08.983Z,102265.22
2023-04-18T11:14:45.022Z,102259.41
2023-04-18T11:17:22.409Z,102258.03
2023-04-18T11:19:50.218Z,102254.56
2023-04-18T11:22:17.878Z,102263.50
2023-04-18T11:24:45.165Z,102256.88
2023-04-18T11:27:12.851Z,102256.69
2023-04-18T11:29:39.710Z,102265.75
2023-04-18T11:32:07.876Z,102265.78
2023-04-18T11:34:36.007Z,102264.94
2023-04-18T11:37:07.670Z,102266.28
2023-04-18T11:39:36.449Z,102269.09
2023-04-18T11:42:03.278Z,102256.91
2023-04-18T11:44:30.204Z,102259.25
2023-04-18T11:46:57.116Z,102263.59
2023-04-18T11:49:32.209Z,102266.09
2023-04-18T11:51:59.785Z,102273.84
2023-04-18T11:54:56.605Z,102272.56
2023-04-18T11:57:25.666Z,102268.44
2023-04-18T11:59:59.551Z,102266.09
2023-04-18T12:02:50.499Z,102268.31
2023-04-18T12:05:29.256Z,102274.63
2023-04-18T12:07:57.246Z,102269.13
2023-04-18T12:10:27.291Z,102266.03
2023-04-18T12:12:55.336Z,102276.34
2023-04-18T12:15:28.315Z,102274.13
2023-04-18T12:18:03.957Z,102259.59
2023-04-18T12:20:34.983Z,102267.31
2023-04-18T12:23:02.454Z,102258.88
2023-04-18T12:25:29.848Z,102262.50
2023-04-18T12:28:01.415Z,102258.53
2023-04-18T12:30:32.025Z,102261.47
2023-04-18T12:33:01.387Z,102255.53
2023-04-18T12:35:28.969Z,102263.38
2023-04-18T12:37:57.215Z,102261.28
2023-04-18T12:40:26.337Z,102261.75
2023-04-18T12:42:54.205Z,102263.34
2023-04-18T12:45:22.208Z,102257.31
2023-04-18T12:47:50.544Z,102250.88
2023-04-18T12:50:23.150Z,102255.47
2023-04-18T12:52:52.292Z,102252.13
2023-04-18T12:55:19.258Z,102259.78
2023-04-18T12:57:46.313Z,102264.72
2023-04-18T13:00:13.815Z,102265.22
2023-04-18T13:02:43.699Z,102266.47
2023-04-18T13:05:12.813Z,102265.31
2023-04-18T13:07:43.183Z,102275.91
2023-04-18T13:10:12.253Z,102272.41
2023-04-18T13:12:40.235Z,102271.03
2023-04-18T13:15:08.646Z,102272.09
2023-04-18T13:17:38.721Z,102281.69
2023-04-18T13:20:07.066Z,102268.38
2023-04-18T13:22:34.144Z,102269.19
2023-04-18T13:25:00.879Z,102271.16
2023-04-18T13:27:27.689Z,102275.31
2023-04-18T13:29:55.253Z,102271.81
2023-04-18T13:32:22.229Z,102268.75
2023-04-18T13:34:49.546Z,102255.25
2023-04-18T13:37:16.517Z,102267.53
2023-04-18T13:39:43.414Z,102258.28
2023-04-18T13:42:10.237Z,102268.47
2023-04-18T13:44:37.874Z,102259.78
2023-04-18T13:47:06.095Z,102255.13
2023-04-18T13:49:33.720Z,102259.13
2023-04-18T13:52:00.729Z,102256.06
2023-04-18T13:54:29.116Z,102255.78
2023-04-18T13:56:57.613Z,102259.22
2023-04-18T13:59:25.380Z,102251.72
2023-04-18T14:01:52.772Z,102254.69
2023-04-18T14:04:23.538Z,102247.56
2023-04-18T14:06:50.586Z,102251.88
2023-04-18T14:09:18.072Z,102251.44
2023-04-18T14:11:45.566Z,102248.03
2023-04-18T14:14:12.394Z,102247.63
2023-04-18T14:16:39.251Z,102244.75
2023-04-18T14:19:06.607Z,102247.81
2023-04-18T14:21:33.437Z,102248.44
2023-04-18T14:24:00.513Z,102244.13
2023-04-18T14:26:27.471Z,102255.44
2023-04-18T14:28:54.209Z,102245.06
2023-04-18T14:31:21.199Z,102247.31
2023-04-18T14:33:47.995Z,102245.41
2023-04-18T14:36:17.622Z,102250.22
2023-04-18T14:38:48.412Z,102243.34
2023-04-18T14:41:15.445Z,102243.16
2023-04-18T14:43:42.395Z,102253.00
2023-04-18T14:46:13.899Z,102246.34
2023-04-18T14:48:40.991Z,102241.56
2023-04-18T14:51:08.042Z,102245.19
2023-04-18T14:53:35.037Z,102245.75
2023-04-18T14:56:01.805Z,102247.78
2023-04-18T14:58:28.645Z,102241.50
2023-04-18T15:00:55.773Z,102236.03
2023-04-18T15:03:22.826Z,102241.56
2023-04-18T15:05:49.897Z,102249.06
2023-04-18T15:08:16.741Z,102251.94
2023-04-18T15:10:44.638Z,102246.53
2023-04-18T15:13:12.176Z,102242.72
2023-04-18T15:15:39.998Z,102242.81
2023-04-18T15:18:08.369Z,102248.59
2023-04-18T15:20:37.197Z,102230.06
2023-04-18T15:23:04.158Z,102232.81
2023-04-18T15:25:31.138Z,102231.00
2023-04-18T15:28:14.932Z,102230.34
2023-04-18T15:30:41.944Z,102240.84
2023-04-18T15:33:08.908Z,102237.28
2023-04-18T15:35:36.133Z,102233.69
2023-04-18T15:38:03.046Z,102242.75
2023-04-18T15:40:30.400Z,102242.59
2023-04-18T15:42:59.551Z,102237.50
2023-04-18T15:45:26.418Z,102233.88
2023-04-18T15:47:53.474Z,102240.69
2023-04-18T15:50:20.622Z,102240.50
2023-04-18T15:52:47.643Z,102237.19
2023-04-18T15:55:14.624Z,102225.59
2023-04-18T15:57:41.996Z,102227.44
2023-04-18T16:00:17.506Z,102236.63
2023-04-18T16:02:45.260Z,102226.78
2023-04-18T16:05:13.242Z,102225.09
2023-04-18T16:07:41.392Z,102227.56
2023-04-18T16:10:10.349Z,102226.75
2023-04-18T16:12:38.433Z,102229.22
2023-04-18T16:15:06.844Z,102226.78
2023-04-18T16:17:33.861Z,102230.34
2023-04-18T16:20:00.764Z,102230.06
2023-04-18T16:22:28.455Z,102224.69
2023-04-18T16:24:55.369Z,102226.69
2023-04-18T16:27:22.279Z,102220.84
2023-04-18T16:29:49.073Z,102220.91
2023-04-18T16:32:15.965Z,102223.25
2023-04-18T16:34:42.812Z,102219.50
2023-04-18T16:37:09.699Z,102224.53
2023-04-18T16:39:36.500Z,102227.53
2023-04-18T16:42:03.976Z,102220.69
2023-04-18T16:44:30.850Z,102217.50
2023-04-18T16:46:57.895Z,102217.88
2023-04-18T16:49:25.326Z,102213.72
2023-04-18T16:51:52.274Z,102215.47
2023-04-18T16:54:19.143Z,102212.91
2023-04-18T16:56:46.029Z,102215.78
2023-04-18T16:59:12.933Z,102210.31
2023-04-18T17:01:39.769Z,102220.47
2023-04-18T17:04:06.743Z,102222.53
2023-04-18T17:06:34.116Z,102209.41
2023-04-18T17:09:00.948Z,102213.13
2023-04-18T17:11:27.990Z,102208.31
2023-04-18T17:13:54.837Z,102200.63
2023-04-18T17:16:21.881Z,102205.56
2023-04-18T17:18:48.746Z,102202.22
2023-04-18T17:21:15.623Z,102214.59
2023-04-18T17:23:42.669Z,102204.72
2023-04-18T17:26:10.117Z,102209.81
2023-04-18T17:28:37.120Z,102199.69
2023-04-18T17:31:04.477Z,102208.94
2023-04-18T17:33:31.687Z,102209.81
2023-04-18T17:35:59.002Z,102212.34
2023-04-18T17:38:25.829Z,102210.25
2023-04-18T17:41:02.692Z,102211.94
2023-04-18T17:43:29.621Z,102210.34
2023-04-18T17:45:59.436Z,102216.63
2023-04-18T17:48:26.400Z,102220.66
2023-04-18T17:50:56.221Z,102217.28
2023-04-18T17:53:23.343Z,102214.03
2023-04-18T17:55:52.305Z,102220.91
2023-04-18T17:58:19.939Z,102215.06
2023-04-18T18:00:46.832Z,102217.50
2023-04-18T18:03:15.137Z,102214.63
2023-04-18T18:05:44.729Z,102212.88
2023-04-18T18:08:11.642Z,102214.41
2023-04-18T18:10:39.261Z,102217.59
2023-04-18T18:13:06.142Z,102220.50
2023-04-18T18:15:33.268Z,102220.16
2023-04-18T18:18:00.309Z,102220.09
2023-04-18T18:20:27.525Z,102219.53
2023-04-18T18:22:55.127Z,102226.63
2023-04-18T18:25:21.944Z,102228.19
2023-04-18T18:27:49.502Z,102225.63
2023-04-18T18:30:17.343Z,102222.47
2023-04-18T18:32:44.340Z,102225.16
2023-04-18T18:35:11.447Z,102223.66
2023-04-18T18:37:38.361Z,102231.47
2023-04-18T18:40:07.449Z,102232.88
2023-04-18T18:42:34.423Z,102221.63
2023-04-18T18:45:01.766Z,102227.63
2023-04-18T18:47:30.545Z,102232.66
2023-04-18T18:49:57.424Z,102237.16
2023-04-18T18:52:24.959Z,102247.66
2023-04-18T18:54:51.826Z,102247.72
2023-04-18T18:57:18.603Z,102250.38
2023-04-18T18:59:45.434Z,102248.84
2023-04-18T19:02:12.371Z,102257.03
2023-04-18T19:04:39.326Z,102261.31
2023-04-18T19:07:06.284Z,102266.59
2023-04-18T19:09:33.450Z,102261.59
2023-04-18T19:12:01.117Z,102263.66
2023-04-18T19:14:27.939Z,102263.00
2023-04-18T19:16:55.957Z,102274.81
2023-04-18T19:19:22.723Z,102271.00
2023-04-18T19:21:50.198Z,102268.41
2023-04-18T19:24:17.733Z,102273.38
2023-04-18T19:26:44.579Z,102272.22
2023-04-18T19:29:14.469Z,102273.31
2023-04-18T19:31:43.681Z,102279.53
2023-04-18T19:34:10.933Z,102289.63
2023-04-18T19:36:38.273Z,102287.00
2023-04-18T19:39:05.164Z,102286.75
2023-04-18T19:41:32.024Z,102289.56
2023-04-18T19:43:59.004Z,102292.50
2023-04-18T19:46:26.288Z,102284.81
2023-04-18T19:48:53.123Z,102291.84
2023-04-18T19:51:20.026Z,102303.47
2023-04-18T19:53:46.860Z,102301.97
2023-04-18T19:56:15.035Z,102295.16
2023-04-18T19:58:46.757Z,102306.97
2023-04-18T20:01:14.573Z,102298.22
2023-04-18T20:03:41.728Z,102300.75
2023-04-18T20:06:08.938Z,102293.97
2023-04-18T20:08:38.236Z,102303.00
2023-04-18T20:11:09.580Z,102296.47
2023-04-18T20:13:37.558Z,102298.16
2023-04-18T20:16:05.694Z,102300.34
2023-04-18T20:18:33.992Z,102308.59
2023-04-18T20:21:00.826Z,102307.41
2023-04-18T20:23:28.260Z,102300.91
2023-04-18T20:25:55.083Z,102304.81
2023-04-18T20:28:22.414Z,102305.84
2023-04-18T20:30:49.453Z,102306.00
2023-04-18T20:33:16.583Z,102306.47
2023-04-18T20:35:44.621Z,102303.47
2023-04-18T20:38:12.403Z,102312.03
2023-04-18T20:40:39.809Z,102312.53
2023-04-18T20:43:10.134Z,102314.25
2023-04-18T20:45:42.863Z,102314.59
2023-04-18T20:48:10.381Z,102316.41
2023-04-18T20:50:40.781Z,102307.81
2023-04-18T20:53:08.398Z,102309.00
2023-04-18T20:55:35.310Z,102309.22
2023-04-18T20:58:02.122Z,102315.63
2023-04-18T21:00:29.518Z,102309.56
2023-04-18T21:02:56.594Z,102318.28
2023-04-18T21:05:23.611Z,102310.75
2023-04-18T21:07:50.654Z,102305.56
2023-04-18T21:10:17.478Z,102316.47
2023-04-18T21:12:44.277Z,102317.78
2023-04-18T21:15:11.632Z,102324.00
2023-04-18T21:17:38.606Z,102316.78
2023-04-18T21:20:06.430Z,102311.78
2023-04-18T21:22:33.235Z,102315.09
2023-04-18T21:25:00.120Z,102320.31
2023-04-18T21:27:27.010Z,102324.84
2023-04-18T21:29:53.978Z,102316.47
2023-04-18T21:32:21.162Z,102320.16
2023-04-18T21:34:47.982Z,102322.97
2023-04-18T21:37:14.829Z,102315.13
2023-04-18T21:39:42.617Z,102316.94
2023-04-18T21:42:11.248Z,102321.78
2023-04-18T21:44:38.116Z,102318.63
2023-04-18T21:47:04.931Z,102322.31
2023-04-18T21:49:31.866Z,102318.94
2023-04-18T21:51:58.752Z,102314.44
2023-04-18T21:54:25.552Z,102311.91
2023-04-18T21:56:52.353Z,102312.22
2023-04-18T21:59:19.108Z,102303.34
2023-04-18T22:01:45.950Z,102312.91
2023-04-18T22:04:14.729Z,102321.31
2023-04-18T22:06:41.998Z,102320.72
2023-04-18T22:09:09.037Z,102318.97
2023-04-18T22:11:35.807Z,102318.34
2023-04-18T22:14:02.510Z,102316.88
2023-04-18T22:16:29.283Z,102311.34
2023-04-18T22:18:56.268Z,102322.91
2023-04-18T22:21:23.104Z,102323.03
2023-04-18T22:23:49.961Z,102317.47
2023-04-18T22:26:16.861Z,102325.56
2023-04-18T22:28:43.651Z,102329.66
2023-04-18T22:31:10.479Z,102321.44
2023-04-18T22:33:37.338Z,102324.94
2023-04-18T22:36:04.447Z,102329.06
2023-04-18T22:38:31.186Z,102325.75
2023-04-18T22:40:59.435Z,102318.97
2023-04-18T22:43:26.975Z,102328.22
2023-04-18T22:45:53.845Z,102322.97
2023-04-18T22:48:20.765Z,102332.94
2023-04-18T22:50:47.670Z,102331.59
2023-04-18T22:53:15.224Z,102340.56
2023-04-18T22:55:43.685Z,102329.06
2023-04-18T22:58:10.857Z,102333.81
2023-04-18T23:00:37.720Z,102337.38
2023-04-18T23:03:04.795Z,102337.88
2023-04-18T23:05:31.864Z,102331.00
2023-04-18T23:08:00.387Z,102336.03
2023-04-18T23:10:27.797Z,102336.19
2023-04-18T23:12:54.589Z,102334.00
2023-04-18T23:15:22.883Z,102331.50
2023-04-18T23:17:54.533Z,102339.38
2023-04-18T23:20:21.883Z,102334.19
2023-04-18T23:22:51.577Z,102327.09
2023-04-18T23:25:19.800Z,102329.59
2023-04-18T23:27:47.079Z,102339.19
2023-04-18T23:30:14.200Z,102330.38
2023-04-18T23:32:41.010Z,102335.00
2023-04-18T23:35:08.239Z,102339.38
2023-04-18T23:37:35.039Z,102335.44
2023-04-18T23:40:02.613Z,102339.59
2023-04-18T23:42:29.456Z,102340.16
2023-04-18T23:44:57.802Z,102346.00
2023-04-18T23:47:24.554Z,102346.00
2023-04-18T23:49:51.414Z,102344.53
2023-04-18T23:52:18.213Z,102354.34
2023-04-18T23:54:45.789Z,102352.19
2023-04-18T23:57:13.882Z,102353.44
2023-04-18T23:59:40.693Z,102357.06
